ADDS METAR Data INFO
IDs: Format: Raw Decoded Include TAF

Data at: 1220 UTC 22 Feb 2018

K1F0 221155Z AUTO 00000KT 1 3/4SM BR OVC003 00/M01 A3031 RMK AO2
K1F0 221135Z AUTO 00000KT 2 1/2SM BR OVC003 M01/M01 A3030 RMK AO2
K1F0 221115Z AUTO 00000KT 2 1/2SM BR OVC003 M01/M01 A3031 RMK AO2
K1F0 221055Z AUTO 00000KT 5SM BR OVC003 M01/M01 A3030 RMK AO2
K1F0 221035Z AUTO 00000KT 5SM BR OVC003 M01/M01 A3030 RMK AO2
K1F0 221015Z AUTO 00000KT 4SM BR OVC003 M01/M01 A3030 RMK AO2
K1F0 220955Z AUTO 00000KT 3SM BR OVC003 M01/M01 A3030 RMK AO2
K1F0 220935Z AUTO 00000KT 2 1/2SM BR OVC003 M01/M01 A3029 RMK AO2
K1F0 220915Z AUTO 00000KT 2SM BR OVC003 M01/M02 A3030 RMK AO2
K1F0 220855Z AUTO 00000KT 2SM BR OVC003 M01/M02 A3030 RMK AO2
K1F0 220835Z AUTO 00000KT 2 1/2SM BR OVC003 M01/M02 A3032 RMK AO2
K1F0 220815Z AUTO 00000KT 1 3/4SM BR OVC003 M01/M02 A3032 RMK AO2
K1F0 220755Z AUTO 00000KT 2SM BR OVC003 M01/M02 A3032 RMK AO2
K1F0 220735Z AUTO 00000KT 2 1/2SM BR OVC003 M01/M02 A3032 RMK AO2
K1F0 220715Z AUTO 00000KT 4SM BR OVC003 M01/M02 A3032 RMK AO2
K1F0 220655Z AUTO 00000KT 4SM BR OVC003 M01/M02 A3034 RMK AO2
K1F0 220635Z AUTO 00000KT 4SM BR OVC003 M01/M02 A3033 RMK AO2
K1F0 220615Z AUTO 00000KT 3SM BR OVC003 M01/M02 A3033 RMK AO2
K1F0 220555Z AUTO 00000KT 2 1/2SM BR OVC003 M01/M02 A3032 RMK AO2
K1F0 220535Z AUTO 00000KT 2SM BR OVC003 M01/M02 A3032 RMK AO2
K1F0 220515Z AUTO 00000KT 2SM BR OVC003 M01/M01 A3032 RMK AO2
K1F0 220455Z AUTO 00000KT 2 1/2SM BR OVC003 M01/M01 A3033 RMK AO2
K1F0 220355Z AUTO 00000KT 2 1/2SM BR OVC003 00/M01 A3034 RMK AO2
K1F0 220035Z AUTO 00000KT 10SM OVC007 00/00 A3030 RMK AO2
K1F0 220015Z AUTO 00000KT 7SM OVC005 00/00 A3029 RMK AO2
K1F0 212355Z AUTO 00000KT 10SM OVC005 00/00 A3030 RMK AO2
K1F0 212335Z AUTO 00000KT 10SM OVC005 00/00 A3029 RMK AO2
K1F0 212315Z AUTO 00000KT 7SM OVC005 00/00 A3025 RMK AO2
K1F0 212255Z AUTO 00000KT 5SM UP OVC005 00/00 A3025 RMK AO2 P0011
K1F0 212235Z AUTO 00000KT 3SM UP OVC005 00/00 A3022 RMK AO2 P0009
K1F0 212215Z AUTO 00000KT 3SM UP OVC005 00/00 A3023 RMK AO2 P0006
K1F0 212155Z AUTO 00000KT 3SM UP BKN007 OVC014 00/M01 A3025 RMK AO2 P0023
K1F0 212135Z AUTO 00000KT 2 1/2SM UP BKN007 OVC017 00/M01 A3027 RMK AO2 P0017
K1F0 212115Z AUTO 00000KT 3SM UP BKN007 BKN017 OVC050 00/M01 A3030 RMK AO2 P0009
K1F0 212055Z AUTO 00000KT 2SM UP BKN007 BKN015 OVC050 00/M01 A3031 RMK AO2 LTG DSNT N P0024
K1F0 212035Z AUTO 00000KT 3SM UP BKN009 BKN026 OVC060 00/M01 A3034 RMK AO2 LTG DSNT NE P0015
K1F0 212015Z AUTO 00000KT 3SM UP BKN005 BKN012 OVC040 00/M01 A3035 RMK AO2 LTG DSNT NE P0007
K1F0 211955Z AUTO 00000KT 1 1/2SM UP OVC007 M01/M02 A3035 RMK AO2 P0018
K1F0 211935Z AUTO 00000KT 1 1/2SM UP OVC010 M01/M02 A3036 RMK AO2 LTG DSNT N P0011
K1F0 211915Z AUTO 00000KT 2 1/2SM UP OVC010 M01/M02 A3038 RMK AO2 P0005
K1F0 211855Z AUTO 00000KT 2SM UP OVC008 M02/M03 A3033 RMK AO2 P0006
K1F0 211835Z AUTO 00000KT 2SM UP OVC008 M02/M03 A3037 RMK AO2 P0003
K1F0 211815Z AUTO 00000KT 2 1/2SM UP OVC008 M01/M03 A3037 RMK AO2 LTG DSNT NE P0001
K1F0 211755Z AUTO 00000KT 7SM UP OVC008 M02/M03 A3037 RMK AO2 LTG DSNT N
K1F0 211735Z AUTO 00000KT 10SM OVC008 M02/M03 A3035 RMK AO2
K1F0 211715Z AUTO 00000KT 10SM OVC008 M02/M03 A3035 RMK AO2
K1F0 211655Z AUTO 00000KT 10SM OVC008 M01/M03 A3035 RMK AO2
K1F0 211635Z AUTO 00000KT 10SM OVC008 M01/M03 A3033 RMK AO2
K1F0 211615Z AUTO 00000KT 10SM OVC008 M01/M02 A3035 RMK AO2
K1F0 211555Z AUTO 00000KT 10SM OVC008 M01/M03 A3036 RMK AO2 LTG DSNT NE P0001
K1F0 211535Z AUTO 00000KT 10SM OVC008 M01/M03 A3035 RMK AO2 P0001
K1F0 211515Z AUTO 00000KT 7SM UP OVC008 M01/M03 A3035 RMK AO2 P0001
K1F0 211455Z AUTO 00000KT 7SM UP OVC008 M02/M03 A3035 RMK AO2 P0002
K1F0 211435Z AUTO 00000KT 3SM UP OVC008 M02/M03 A3034 RMK AO2 P0002
K1F0 211415Z AUTO 00000KT 4SM UP OVC006 M02/M03 A3035 RMK AO2 P0002
K1F0 211355Z AUTO 00000KT 4SM UP OVC006 M01/M02 A3033 RMK AO2 P0002
K1F0 211335Z AUTO 00000KT 7SM UP OVC006 M02/M03 A3032 RMK AO2
K1F0 211315Z AUTO 00000KT 10SM UP OVC008 M02/M03 A3030 RMK AO2
K1F0 211255Z AUTO 00000KT 10SM OVC008 M02/M03 A3031 RMK AO2
K1F0 210735Z AUTO 00000KT 10SM OVC008 00/M02 A3024 RMK AO2
K1F0 210715Z AUTO 00000KT 10SM UP OVC010 00/M02 A3025 RMK AO2
K1F0 210655Z AUTO 00000KT 10SM UP OVC008 00/M02 A3025 RMK AO2
K1F0 210635Z AUTO 00000KT 10SM UP OVC008 00/M01 A3024 RMK AO2
K1F0 210615Z AUTO 00000KT 10SM OVC010 00/M01 A3023 RMK AO2
K1F0 210555Z AUTO 00000KT 10SM OVC010 00/M01 A3025 RMK AO2